Crooked Creek Research Lab Weather observations

Data are for 10 minute period ending at time listed.
 Day   Time    Ave.   Ave.  Ave.  Vector   Max.   Stn.    Total    Solar   Ave.   Snow 
  of    of     Air    Rel.  Wind   Wind    Wind   Baro.  Precip.   Rad.    Soil   Depth
Year   Day     Temp.  Hum.  Speed  Dir.    Gust   Pres.                    Temp.       
2014   (PST)    F      %     mph   deg.    mph     mb.     in.     W/m2     F      in. 
---------------------------------------------------------------------------------------  
 297    0:00   39.7    36    1.9   213      5.7   704.8    0.00       0    999.0    -0.6
 297    0:10   39.8    36    1.6   186      5.5   704.8    0.00       0    999.0    -0.6
 297    0:20   39.3    37    2.5   190      6.2   704.7    0.00       0    999.0    -0.5
 297    0:30   39.2    36    2.0   167      5.3   704.7    0.00       0    999.0    -0.7
 297    0:40   38.8    37    2.7   147      6.5   704.7    0.00       0    999.0    -0.6
 297    0:50   39.2    36    3.1   181      7.5   704.6    0.00       0    999.0    -0.5
 297    1:00   39.5    35    3.1   157      8.0   704.7    0.00       0    999.0    -0.5
 297    1:10   39.7    34    3.1   199      9.0   704.5    0.00       0    999.0    -0.6
 297    1:20   39.6    35    2.7   190      6.4   704.7    0.00       0    999.0    -0.5
 297    1:30   39.1    35    2.5   205      6.7   704.5    0.00       0    999.0    -0.5
 297    1:40   39.3    34    2.2   215      5.8   704.5    0.00       0    999.0    -0.5
 297    1:50   40.0    33    2.8   227      8.0   704.4    0.00       0    999.0    -0.4
 297    2:00   40.0    33    2.3   220      8.3   704.3    0.00       0    999.0    -0.7
 297    2:10   40.2    33    3.2   222      6.2   704.2    0.00       0    999.0    -0.5
 297    2:20   39.7    34    2.7   223      8.3   704.2    0.00       0    999.0    -0.4
 297    2:30   40.0    33    2.5   215      6.0   703.9    0.00       0    999.0    -0.5
 297    2:40   39.6    34    1.9   221      4.6   703.9    0.00       0    999.0    -0.6
 297    2:50   39.4    34    1.3   208      3.4   703.9    0.00       0    999.0    -0.5
 297    3:00   40.0    34    2.7   234      7.4   704.0    0.00       0    999.0    -0.4
 297    3:10   40.0    34    2.2   223      7.2   704.1    0.00       0    999.0    -0.6
 297    3:20   39.1    35    2.4   221      6.1   704.1    0.00       0    999.0    -0.6
 297    3:30   38.3    36    2.2   237      6.3   704.1    0.00       0    999.0    -0.6
 297    3:40   38.6    36    1.6   215      5.5   704.1    0.00       0    999.0    -0.5
 297    3:50   39.4    35    1.7   214      7.2   704.1    0.00       0    999.0    -0.5
 297    4:00   39.5    35    2.8   225     10.6   704.1    0.00       0    999.0    -0.5
 297    4:10   40.0    34    2.0   189      7.0   704.1    0.00       0    999.0    -0.5
 297    4:20   40.4    34    2.5   225      9.8   704.0    0.00       0    999.0    -0.5
 297    4:30   40.7    33    2.9   207     12.1   704.2    0.00       0    999.0    -0.5
 297    4:40   40.7    33    2.8   223     10.0   704.2    0.00       0    999.0    -0.5
 297    4:50   40.3    34    2.1   213      8.3   704.3    0.00       0    999.0    -0.5
 297    5:00   39.8    34    2.8   224      6.6   704.4    0.00       0    999.0    -0.6
 297    5:10   39.5    34    2.6   174      9.8   704.4    0.00       0    999.0    -0.5
 297    5:20   40.3    33    1.7   194      5.7   704.5    0.00       0    999.0    -0.6
 297    5:30   40.4    33    2.5   159      6.8   704.4    0.00       0    999.0    -0.6
 297    5:40   39.6    34    1.6   157      5.0   704.6    0.00       0    999.0    -0.7
 297    5:50   38.6    35    2.4   158      4.7   704.5    0.00       1    999.0    -0.6
 297    6:00   37.4    36    2.1   192      3.7   704.5    0.00       2    999.0    -0.8
 297    6:10   34.1    40    2.7   220      5.7   704.6    0.00       4    999.0    -0.8
 297    6:20   34.8    39    1.9   174      4.2   704.7    0.00      10    999.0    -0.5
 297    6:30   37.6    35    1.9   145      5.6   704.5    0.00      16    999.0    -0.5
 297    6:40   39.1    33    3.3   190      6.6   704.8    0.00      29    999.0    -0.5
 297    6:50   39.5    33    2.3   170      6.9   704.7    0.00      48    999.0    -0.5
 297    7:00   41.4    30    2.0   197      6.8   704.8    0.00      65    999.0    -0.4
 297    7:10   42.6    29    3.5   226      8.4   705.0    0.00      79    999.0    -0.4
 297    7:20   43.3    29    1.9   220     12.4   705.0    0.00      87    999.0    -0.4
 297    7:30   44.4    27    2.7   180     10.4   705.3    0.00      89    999.0    -0.4
 297    7:40   45.0    26    2.7   184      8.0   705.4    0.00     101    999.0    -0.5
 297    7:50   45.5    26    2.3   197      7.1   705.3    0.00     131    999.0    -0.5
 297    8:00   45.7    27    2.7   203      9.7   705.4    0.00     147    999.0    -0.5
 297    8:10   46.5    25    4.0   137      8.5   705.4    0.00     174    999.0    -0.4
 297    8:20   47.6    23    4.4   145     11.7   705.4    0.00     183    999.0    -0.4
 297    8:30   48.0    23    3.5   141      9.0   705.4    0.00     191    999.0    -0.5
 297    8:40   48.4    23    2.8   193      7.6   705.6    0.00     238    999.0    -0.5
 297    8:50   49.0    23    3.4   210     11.1   705.5    0.00     259    999.0    -0.5
 297    9:00   49.2    22    3.2   197     12.6   705.5    0.00     268    999.0    -0.5
 297    9:10   49.6    21    3.4   199      9.3   705.5    0.00     239    999.0    -0.5
 297    9:20   49.9    21    3.5   160      8.3   705.6    0.00     298    999.0    -0.4
 297    9:30   51.4    20    3.2   177     10.0   705.6    0.00     410    999.0    -0.4
 297    9:40   52.4    18    4.4   186     12.0   705.5    0.00     474    999.0    -0.5
 297    9:50   52.6    18    4.1   190     11.4   705.6    0.00     387    999.0    -0.5
 297   10:00   52.9    18    4.1   198     15.9   705.5    0.00     476    999.0    -0.4
 297   10:10   53.8    17    5.5   201     15.3   705.4    0.00     580    999.0    -0.5
 297   10:20   54.0    17    5.8   197     14.2   705.5    0.00     644    999.0    -0.4
 297   10:30   55.4    16    5.7   182     15.6   705.5    0.00     655    999.0    -0.4
 297   10:40   55.3    17    5.7   194     17.7   705.5    0.00     634    999.0    -0.3
 297   10:50   54.6    17    4.7   181     17.0   705.4    0.00     446    999.0    -0.4
 297   11:00   54.5    17    4.7   207     16.6   705.3    0.00     535    999.0    -0.4
 297   11:10   54.2    17    7.0   213     23.2   705.4    0.00     608    999.0    -0.3
 297   11:20   54.1    17    5.7   199     16.9   705.1    0.00     534    999.0    -0.3
 297   11:30   55.0    16    6.3   204     14.4   705.1    0.00     668    999.0    -0.4
 297   11:40   55.5    16    5.6   192     14.9   705.1    0.00     657    999.0    -0.5
 297   11:50   56.2    16    5.1   163     18.8   705.1    0.00     680    999.0    -0.3
 297   12:00   56.9    16    5.4   200     24.0   704.9    0.00     674    999.0    -0.4
 297   12:10   56.6    16    6.5   191     20.6   704.6    0.00     662    999.0    -0.4
 297   12:20   56.0    16    7.0   200     22.8   704.8    0.00     642    999.0    -0.4
 297   12:30   56.8    16    6.0   215     15.8   704.7    0.00     686    999.0    -0.3
 297   12:40   57.0    16    7.7   238     18.6   704.6    0.00     635    999.0    -0.6
 297   12:50   56.5    16    8.8   237     20.2   704.6    0.00     611    999.0    -0.4
 297   13:00   56.1    16    9.3   236     22.3   704.4    0.00     594    999.0    -0.5
 297   13:10   56.4    16    6.6   184     20.0   704.4    0.00     585    999.0    -0.3
 297   13:20   56.4    16    5.4   216     15.2   704.4    0.00     457    999.0    -0.3
 297   13:30   56.0    16    6.6   222     18.9   704.4    0.00     400    999.0    -0.4
 297   13:40   56.0    16    5.0   202     22.0   704.4    0.00     350    999.0    -0.2
 297   13:50   54.8    17    6.4   191     19.6   704.4    0.00     246    999.0    -0.2
 297   14:00   54.2    17    5.6   226     18.7   704.3    0.00     243    999.0    -0.2
 297   14:10   53.9    17    6.3   224     15.5   704.3    0.00     185    999.0    -0.1
 297   14:20   53.7    17    5.0   189     16.2   704.3    0.00     235    999.0    -0.2
 297   14:30   53.6    18    4.3   205     12.0   704.3    0.00     170    999.0    -0.2
 297   14:40   52.8    18    3.9   210     13.1   704.3    0.00     123    999.0    -0.1
 297   14:50   52.2    19    6.3   226     16.3   704.3    0.00     115    999.0    -0.1
 297   15:00   52.0    19    6.1   235     15.8   704.3    0.00     114    999.0    -0.1
 297   15:10   51.7    20    6.4   235     12.2   704.3    0.00     104    999.0    -0.2
 297   15:20   51.4    20    6.7   240     13.5   704.2    0.00      90    999.0    -0.2
 297   15:30   51.0    20    7.4   238     13.1   704.3    0.00      86    999.0    -0.2
 297   15:40   50.9    20    7.6   239     14.6   704.2    0.00      87    999.0    -0.3
 297   15:50   52.1    19    3.9   200     11.7   704.4    0.00     199    999.0    -0.2
 297   16:00   53.7    18    3.8   217     12.8   704.4    0.00     184    999.0    -0.2
 297   16:10   53.5    19    4.5   206     14.7   704.5    0.00     140    999.0    -0.3
 297   16:20   52.5    20    3.8   193     11.1   704.5    0.00      65    999.0    -0.3
 297   16:30   50.3    23    3.3   147      8.1   704.5    0.00      22    999.0    -0.3
 297   16:40   49.3    24    3.2   158      6.6   704.6    0.00      13    999.0    -0.3
 297   16:50   48.5    25    2.5   157      9.0   704.7    0.00       7    999.0    -0.3
 297   17:00   47.3    27    1.1   185      3.4   704.7    0.00       5    999.0    -0.6
 297   17:10   46.0    28    1.9   220      4.5   704.6    0.00       3    999.0    -0.5
 297   17:20   44.3    30    2.4   192      5.6   704.7    0.00       0    999.0    -0.6
 297   17:30   44.7    30    3.5   208      6.4   704.7    0.00       0    999.0    -0.4
 297   17:40   44.3    29    2.1   193      5.3   704.6    0.00       0    999.0    -0.6
 297   17:50   42.5    30    2.3   169      5.3   704.6    0.00       0    999.0    -0.7
 297   18:00   42.6    30    2.8   210      8.1   704.7    0.00       0    999.0    -0.5
 297   18:10   42.5    30    1.4   202      4.5   704.6    0.00       0    999.0    -0.6
 297   18:20   43.2    29    3.1   201      7.8   704.6    0.00       0    999.0    -0.4
 297   18:30   44.0    28    2.2   208      5.6   704.7    0.00       0    999.0    -0.6
 297   18:40   43.8    28    3.6   219      7.6   704.5    0.00       0    999.0    -0.5
 297   18:50   44.5    28    2.4   234      7.2   704.4    0.00       0    999.0    -0.5
 297   19:00   44.7    27    2.5   210      7.9   704.4    0.00       0    999.0    -0.5
 297   19:10   45.3    26    1.8   200      8.2   704.3    0.00       0    999.0    -0.4
 297   19:20   45.9    26    3.8   224     11.3   704.3    0.00       0    999.0    -0.5
 297   19:30   46.2    25    4.6   214     11.2   704.3    0.00       0    999.0    -0.4
 297   19:40   46.2    25    4.1   227     11.3   704.4    0.00       0    999.0    -0.5
 297   19:50   46.0    26    3.7   220      9.1   704.5    0.00       0    999.0    -0.5
 297   20:00   45.3    26    3.4   231      9.7   704.5    0.00       0    999.0    -0.4
 297   20:10   45.0    27    2.2   197      5.2   704.7    0.00       0    999.0    -0.5
 297   20:20   43.8    28    1.4   147      4.1   704.8    0.00       0    999.0    -0.6
 297   20:30   42.8    29    1.7   157      5.0   704.8    0.00       0    999.0    -0.6
 297   20:40   41.6    31    1.5   160      2.9   704.8    0.00       0    999.0    -0.8
 297   20:50   41.2    31    1.3   172      2.6   704.8    0.00       0    999.0    -0.7
 297   21:00   40.4    33    1.2   183      3.1   704.8    0.00       0    999.0    -0.6
 297   21:10   40.2    33    1.6   210      4.4   704.8    0.00       0    999.0    -0.6
 297   21:20   40.7    32    2.5   205      7.4   704.8    0.00       0    999.0    -0.5
 297   21:30   41.6    32    2.3   205      5.6   704.8    0.00       0    999.0    -0.6
 297   21:40   41.1    32    2.6   232      8.1   704.8    0.00       0    999.0    -0.6
 297   21:50   40.9    32    1.5   186      4.2   704.9    0.00       0    999.0    -0.5
 297   22:00   41.6    32    2.3   155      6.0   704.9    0.00       0    999.0    -0.6
 297   22:10   41.3    32    2.7   162      5.6   704.9    0.00       0    999.0    -0.7
 297   22:20   40.7    33    1.9   166      5.9   704.8    0.00       0    999.0    -0.7
 297   22:30   40.1    33    2.1   156      4.8   704.9    0.00       0    999.0    -0.6
 297   22:40   40.0    33    1.8   188      5.8   704.8    0.00       0    999.0    -0.6
 297   22:50   40.1    33    1.6   164      5.0   704.8    0.00       0    999.0    -0.6
 297   23:00   42.1    31    2.8   194      8.9   704.8    0.00       0    999.0    -0.5
 297   23:10   42.9    30    2.2   183      6.5   704.9    0.00       0    999.0    -0.6
 297   23:20   43.3    29    2.8   170      6.3   704.9    0.00       0    999.0    -0.5
 297   23:30   43.2    29    2.7   187      7.7   705.0    0.00       0    999.0    -0.6
 297   23:40   43.0    29    3.2   190      8.0   705.0    0.00       0    999.0    -0.6
 297   23:50   43.0    29    3.4   208     14.1   705.0    0.00       0    999.0    -0.5

Return to Crooked Creek Research Lab graphs page.


Western Regional Climate Center,wrcc@dri.edu